createdAt,value
2018-01-03T00:00:30.676Z,3.13
2018-01-03T00:02:58.280Z,2.90
2018-01-03T00:05:25.920Z,2.87
2018-01-03T00:07:53.520Z,3.00
2018-01-03T00:10:21.233Z,2.70
2018-01-03T00:12:48.860Z,2.83
2018-01-03T00:15:16.468Z,3.50
2018-01-03T00:17:44.900Z,2.20
2018-01-03T00:20:12.497Z,2.90
2018-01-03T00:22:40.146Z,2.93
2018-01-03T00:25:07.763Z,1.50
2018-01-03T00:27:36.108Z,2.30
2018-01-03T00:30:03.743Z,1.97
2018-01-03T00:32:31.328Z,1.80
2018-01-03T00:34:58.907Z,2.63
2018-01-03T00:37:27.287Z,2.43
2018-01-03T00:39:55.632Z,2.53
2018-01-03T00:42:23.494Z,2.73
2018-01-03T00:44:51.083Z,2.20
2018-01-03T00:47:18.668Z,2.47
2018-01-03T00:49:47.048Z,2.20
2018-01-03T00:52:14.656Z,2.17
2018-01-03T00:54:42.277Z,1.87
2018-01-03T00:57:09.865Z,2.60
2018-01-03T00:59:37.453Z,1.97
2018-01-03T01:02:05.903Z,2.37
2018-01-03T01:04:33.493Z,1.83
2018-01-03T01:07:01.119Z,1.47
2018-01-03T01:09:28.710Z,2.70
2018-01-03T01:11:56.343Z,2.13
2018-01-03T01:14:23.928Z,2.00
2018-01-03T01:16:51.516Z,1.70
2018-01-03T01:19:19.912Z,2.13
2018-01-03T01:21:47.495Z,1.53
2018-01-03T01:24:15.112Z,2.20
2018-01-03T01:26:43.473Z,1.17
2018-01-03T01:29:11.101Z,2.90
2018-01-03T01:31:38.696Z,1.40
2018-01-03T01:34:06.288Z,1.37
2018-01-03T01:36:34.659Z,2.23
2018-01-03T01:39:03.032Z,1.90
2018-01-03T01:41:31.419Z,1.60
2018-01-03T01:43:59.784Z,1.63
2018-01-03T01:46:27.364Z,1.83
2018-01-03T01:49:06.929Z,1.40
2018-01-03T01:51:34.586Z,1.97
2018-01-03T01:54:02.187Z,1.13
2018-01-03T01:56:29.788Z,2.10
2018-01-03T01:58:58.178Z,1.60
2018-01-03T02:01:25.769Z,1.80
2018-01-03T02:03:53.385Z,1.60
2018-01-03T02:06:21.741Z,1.40
2018-01-03T02:08:50.124Z,2.10
2018-01-03T02:11:18.480Z,1.93
2018-01-03T02:13:46.111Z,1.67
2018-01-03T02:16:13.697Z,2.13
2018-01-03T02:18:41.318Z,1.30
2018-01-03T02:21:08.911Z,2.20
2018-01-03T02:23:36.499Z,2.17
2018-01-03T02:26:04.111Z,1.73
2018-01-03T02:28:31.705Z,2.20
2018-01-03T02:30:59.342Z,1.50
2018-01-03T02:33:26.940Z,2.00
2018-01-03T02:35:54.573Z,2.03
2018-01-03T02:38:32.024Z,2.17
2018-01-03T02:40:59.659Z,2.20
2018-01-03T02:43:27.240Z,2.90
2018-01-03T02:45:55.600Z,2.70
2018-01-03T02:48:23.228Z,2.00
2018-01-03T02:50:50.820Z,1.90
2018-01-03T02:53:19.181Z,2.00
2018-01-03T02:55:46.802Z,1.90
2018-01-03T02:58:14.405Z,1.97
2018-01-03T03:00:42.027Z,2.30
2018-01-03T03:03:09.621Z,1.60
2018-01-03T03:05:37.223Z,2.03
2018-01-03T03:08:05.607Z,2.10
2018-01-03T03:10:33.213Z,1.93
2018-01-03T03:13:00.826Z,1.93
2018-01-03T03:15:28.436Z,1.00
2018-01-03T03:17:56.025Z,2.53
2018-01-03T03:20:23.608Z,1.60
2018-01-03T03:22:51.233Z,1.53
2018-01-03T03:25:20.324Z,1.50
2018-01-03T03:27:48.680Z,1.40
2018-01-03T03:30:16.298Z,1.70
2018-01-03T03:32:44.655Z,1.70
2018-01-03T03:35:12.270Z,1.40
2018-01-03T03:37:39.874Z,1.20
2018-01-03T03:40:07.501Z,1.17
2018-01-03T03:42:35.127Z,1.10
2018-01-03T03:45:02.720Z,1.27
2018-01-03T03:47:30.332Z,1.33
2018-01-03T03:49:58.689Z,1.20
2018-01-03T03:52:26.300Z,1.50
2018-01-03T03:54:53.982Z,1.50
2018-01-03T03:57:21.611Z,1.00
2018-01-03T03:59:49.233Z,1.07
2018-01-03T04:02:18.328Z,0.80
2018-01-03T04:04:45.961Z,1.10
2018-01-03T04:07:13.544Z,0.70
2018-01-03T04:09:41.165Z,0.80
2018-01-03T04:12:08.760Z,1.10
2018-01-03T04:14:36.381Z,1.17
2018-01-03T04:17:03.979Z,1.33
2018-01-03T04:19:32.377Z,1.23
2018-01-03T04:21:59.992Z,0.80
2018-01-03T04:24:27.585Z,0.80
2018-01-03T04:26:55.197Z,0.93
2018-01-03T04:29:22.809Z,0.67
2018-01-03T04:31:50.393Z,1.03
2018-01-03T04:34:18.777Z,1.00
2018-01-03T04:36:47.136Z,1.00
2018-01-03T04:39:14.757Z,0.77
2018-01-03T04:41:42.357Z,0.97
2018-01-03T04:44:09.974Z,0.90
2018-01-03T04:46:37.564Z,0.87
2018-01-03T04:49:05.188Z,1.07
2018-01-03T04:51:32.782Z,0.93
2018-01-03T04:54:00.384Z,1.23
2018-01-03T04:56:28.771Z,1.10
2018-01-03T04:58:56.361Z,1.07
2018-01-03T05:01:24.024Z,0.93
2018-01-03T05:03:51.627Z,0.77
2018-01-03T05:06:19.999Z,0.93
2018-01-03T05:08:49.124Z,0.63
2018-01-03T05:11:17.493Z,0.73
2018-01-03T05:13:45.885Z,0.93
2018-01-03T05:16:13.472Z,1.00
2018-01-03T05:18:41.098Z,0.77
2018-01-03T05:21:09.448Z,0.70
2018-01-03T05:23:37.073Z,0.70
2018-01-03T05:26:04.664Z,0.77
2018-01-03T05:28:32.283Z,0.73
2018-01-03T05:30:59.877Z,1.00
2018-01-03T05:33:27.468Z,1.10
2018-01-03T05:35:55.848Z,0.70
2018-01-03T05:38:24.215Z,1.33
2018-01-03T05:40:51.845Z,1.23
2018-01-03T05:43:19.441Z,1.00
2018-01-03T05:45:47.032Z,1.37
2018-01-03T05:48:14.653Z,1.67
2018-01-03T05:50:42.248Z,1.20
2018-01-03T05:53:09.941Z,1.57
2018-01-03T05:55:37.526Z,1.37
2018-01-03T05:58:05.112Z,1.13
2018-01-03T06:00:33.498Z,1.30
2018-01-03T06:03:01.856Z,0.90
2018-01-03T06:05:29.480Z,1.00
2018-01-03T06:07:57.073Z,1.10
2018-01-03T06:10:24.681Z,0.70
2018-01-03T06:12:52.274Z,0.70
2018-01-03T06:15:19.895Z,0.70
2018-01-03T06:17:47.480Z,0.90
2018-01-03T06:20:15.101Z,0.50
2018-01-03T06:22:43.522Z,0.70
2018-01-03T06:25:11.104Z,0.60
2018-01-03T06:27:38.731Z,0.50
2018-01-03T06:30:06.316Z,0.50
2018-01-03T06:32:33.905Z,0.50
2018-01-03T06:35:01.524Z,0.60
2018-01-03T06:37:29.103Z,0.53
2018-01-03T06:39:56.722Z,0.50
2018-01-03T06:42:24.310Z,0.60
2018-01-03T06:44:51.893Z,0.50
2018-01-03T06:47:19.504Z,0.60
2018-01-03T06:49:47.097Z,0.57
2018-01-03T06:52:14.679Z,0.50
2018-01-03T06:54:42.328Z,0.80
2018-01-03T06:57:09.924Z,0.50
2018-01-03T06:59:38.271Z,0.60
2018-01-03T07:02:05.881Z,0.60
2018-01-03T07:04:33.468Z,0.57
2018-01-03T07:07:01.201Z,0.50
2018-01-03T07:09:28.793Z,0.50
2018-01-03T07:11:56.412Z,0.60
2018-01-03T07:14:24.760Z,0.60
2018-01-03T07:16:52.361Z,0.57
2018-01-03T07:19:19.976Z,0.60
2018-01-03T07:21:47.565Z,0.70
2018-01-03T07:24:15.992Z,0.90
2018-01-03T07:26:43.590Z,0.80
2018-01-03T07:29:12.032Z,0.83
2018-01-03T07:31:39.660Z,0.73
2018-01-03T07:34:07.254Z,0.70
2018-01-03T07:36:34.880Z,0.77
2018-01-03T07:39:02.492Z,0.73
2018-01-03T07:41:30.092Z,0.90
2018-01-03T07:43:58.483Z,0.80
2018-01-03T07:46:26.074Z,0.83
2018-01-03T07:48:53.662Z,0.90
2018-01-03T07:51:21.292Z,0.77
2018-01-03T07:53:48.957Z,0.70
2018-01-03T07:56:16.619Z,0.80
2018-01-03T07:58:44.219Z,0.70
2018-01-03T08:01:11.822Z,0.80
2018-01-03T08:03:39.464Z,0.77
2018-01-03T08:06:07.986Z,1.10
2018-01-03T08:08:35.580Z,0.80
2018-01-03T08:11:03.213Z,0.80
2018-01-03T08:13:30.799Z,0.93
2018-01-03T08:15:58.394Z,0.80
2018-01-03T08:18:26.022Z,0.90
2018-01-03T08:20:53.616Z,1.17
2018-01-03T08:23:21.206Z,0.83
2018-01-03T08:25:48.829Z,1.10
2018-01-03T08:28:17.194Z,0.90
2018-01-03T08:30:45.580Z,1.00
2018-01-03T08:33:13.937Z,0.97
2018-01-03T08:35:41.559Z,0.80
2018-01-03T08:38:09.163Z,0.80
2018-01-03T08:40:36.808Z,1.13
2018-01-03T08:43:04.413Z,1.37
2018-01-03T08:45:32.012Z,1.17
2018-01-03T08:47:59.657Z,0.80
2018-01-03T08:50:27.255Z,1.50
2018-01-03T08:52:54.890Z,1.30
2018-01-03T08:55:22.475Z,1.20
2018-01-03T08:57:50.126Z,1.30
2018-01-03T09:00:17.717Z,0.93
2018-01-03T09:02:46.096Z,1.33
2018-01-03T09:05:14.485Z,1.07
2018-01-03T09:07:42.844Z,1.40
2018-01-03T09:10:10.472Z,1.47
2018-01-03T09:12:38.064Z,1.10
2018-01-03T09:15:06.448Z,1.17
2018-01-03T09:17:34.072Z,1.50
2018-01-03T09:20:01.693Z,1.40
2018-01-03T09:22:30.040Z,1.37
2018-01-03T09:24:57.674Z,1.57
2018-01-03T09:27:25.279Z,1.50
2018-01-03T09:29:53.638Z,1.77
2018-01-03T09:32:21.262Z,1.80
2018-01-03T09:34:49.147Z,1.27
2018-01-03T09:37:16.772Z,1.63
2018-01-03T09:39:44.465Z,1.40
2018-01-03T09:42:12.093Z,1.10
2018-01-03T09:44:39.701Z,1.43
2018-01-03T09:47:07.312Z,1.63
2018-01-03T09:49:34.930Z,1.63
2018-01-03T09:52:03.382Z,1.80
2018-01-03T09:54:31.006Z,1.53
2018-01-03T09:56:59.363Z,1.50
2018-01-03T09:59:26.991Z,2.90
2018-01-03T10:01:54.603Z,1.93
2018-01-03T10:04:25.745Z,0.90
2018-01-03T10:06:53.445Z,1.00
2018-01-03T10:09:21.032Z,1.10
2018-01-03T10:11:48.648Z,0.90
2018-01-03T10:14:16.249Z,0.97
2018-01-03T10:16:43.884Z,1.07
2018-01-03T10:19:11.480Z,0.73
2018-01-03T10:21:39.068Z,0.60
2018-01-03T10:24:07.494Z,0.80
2018-01-03T10:26:35.093Z,1.07
2018-01-03T10:29:02.712Z,0.60
2018-01-03T10:31:30.308Z,0.77
2018-01-03T10:33:57.940Z,0.70
2018-01-03T10:36:25.611Z,0.50
2018-01-03T10:38:53.206Z,0.60
2018-01-03T10:41:21.592Z,0.60
2018-01-03T10:43:49.948Z,0.80
2018-01-03T10:46:18.341Z,0.60
2018-01-03T10:48:46.701Z,0.80
2018-01-03T10:51:14.317Z,0.80
2018-01-03T10:53:42.119Z,0.87
2018-01-03T10:56:09.717Z,0.70
2018-01-03T10:58:38.124Z,1.03
2018-01-03T11:01:05.708Z,0.87
2018-01-03T11:03:33.309Z,0.80
2018-01-03T11:06:01.701Z,1.40
2018-01-03T11:08:30.091Z,1.33
2018-01-03T11:10:57.734Z,0.77
2018-01-03T11:13:26.098Z,1.00
2018-01-03T11:15:53.822Z,1.50
2018-01-03T11:18:21.600Z,1.10
2018-01-03T11:20:49.188Z,1.20
2018-01-03T11:23:16.808Z,1.10
2018-01-03T11:25:44.397Z,1.23
2018-01-03T11:28:13.493Z,1.60
2018-01-03T11:30:41.108Z,1.40
2018-01-03T11:33:08.708Z,1.00
2018-01-03T11:35:36.339Z,1.20
2018-01-03T11:38:03.932Z,1.00
2018-01-03T11:40:31.540Z,1.47
2018-01-03T11:42:59.165Z,1.03
2018-01-03T11:45:27.537Z,1.30
2018-01-03T11:47:55.151Z,1.07
2018-01-03T11:50:22.745Z,1.57
2018-01-03T11:52:50.336Z,1.40
2018-01-03T11:55:18.764Z,1.70
2018-01-03T11:57:46.367Z,2.17
2018-01-03T12:00:13.984Z,1.17
2018-01-03T12:02:41.572Z,1.10
2018-01-03T12:05:09.184Z,1.80
2018-01-03T12:07:36.777Z,1.63
2018-01-03T12:10:04.382Z,1.70
2018-01-03T12:12:32.763Z,1.70
2018-01-03T12:15:01.122Z,1.10
2018-01-03T12:17:28.761Z,1.27
2018-01-03T12:19:56.623Z,1.30
2018-01-03T12:22:24.493Z,1.43
2018-01-03T12:24:52.106Z,1.60
2018-01-03T12:27:19.810Z,1.20
2018-01-03T12:29:48.902Z,1.00
2018-01-03T12:32:16.509Z,1.10
2018-01-03T12:34:44.866Z,1.20
2018-01-03T12:37:12.484Z,1.20
2018-01-03T12:39:40.094Z,2.00
2018-01-03T12:42:07.770Z,1.20
2018-01-03T12:44:36.133Z,1.40
2018-01-03T12:47:03.763Z,1.20
2018-01-03T12:49:31.417Z,1.10
2018-01-03T12:51:59.155Z,2.13
2018-01-03T12:54:26.847Z,1.27
2018-01-03T12:56:54.436Z,1.67
2018-01-03T12:59:22.029Z,1.70
2018-01-03T13:01:50.419Z,1.20
2018-01-03T13:04:18.109Z,1.23
2018-01-03T13:06:45.748Z,1.13
2018-01-03T13:09:13.657Z,1.93
2018-01-03T13:11:41.238Z,1.40
2018-01-03T13:14:08.848Z,1.10
2018-01-03T13:16:36.435Z,0.93
2018-01-03T13:19:04.084Z,0.97
2018-01-03T13:21:31.680Z,1.37
2018-01-03T13:23:59.260Z,1.27
2018-01-03T13:26:27.777Z,1.00
2018-01-03T13:28:55.376Z,1.50
2018-01-03T13:31:24.496Z,1.40
2018-01-03T13:33:52.853Z,0.70
2018-01-03T13:36:20.473Z,1.00
2018-01-03T13:38:48.070Z,1.33
2018-01-03T13:41:15.669Z,1.00
2018-01-03T13:43:43.590Z,1.57
2018-01-03T13:46:11.447Z,1.20
2018-01-03T13:48:39.323Z,1.17
2018-01-03T13:51:06.909Z,1.17
2018-01-03T13:53:35.269Z,1.47
2018-01-03T13:56:02.884Z,0.83
2018-01-03T13:58:30.464Z,1.07
2018-01-03T14:00:58.088Z,0.60
2018-01-03T14:03:25.747Z,0.70
2018-01-03T14:05:53.366Z,0.60
2018-01-03T14:08:20.953Z,0.60
2018-01-03T14:10:49.345Z,0.90
2018-01-03T14:13:17.699Z,1.13
2018-01-03T14:15:45.300Z,0.60
2018-01-03T14:18:12.963Z,0.80
2018-01-03T14:20:40.549Z,0.90
2018-01-03T14:23:08.172Z,0.80
2018-01-03T14:25:35.764Z,0.60
2018-01-03T14:28:03.361Z,0.60
2018-01-03T14:30:30.976Z,0.53
2018-01-03T14:32:58.563Z,0.70
2018-01-03T14:35:26.198Z,0.77
2018-01-03T14:37:53.798Z,0.63
2018-01-03T14:40:21.654Z,0.63
2018-01-03T14:42:49.246Z,0.90
2018-01-03T14:45:17.632Z,0.60
2018-01-03T14:47:46.004Z,0.70
2018-01-03T14:50:14.449Z,0.60
2018-01-03T14:52:42.300Z,0.90
2018-01-03T14:55:09.892Z,0.70
2018-01-03T14:57:38.252Z,0.63
2018-01-03T15:00:06.227Z,0.77
2018-01-03T15:02:34.450Z,0.70
2018-01-03T15:05:02.361Z,1.07
2018-01-03T15:07:30.113Z,0.70
2018-01-03T15:09:57.709Z,0.70
2018-01-03T15:12:25.333Z,0.80
2018-01-03T15:14:53.000Z,1.00
2018-01-03T15:17:20.626Z,1.00
2018-01-03T15:19:48.216Z,0.60
2018-01-03T15:22:15.813Z,0.60
2018-01-03T15:24:43.428Z,0.63
2018-01-03T15:27:11.015Z,0.60
2018-01-03T15:29:38.635Z,0.60
2018-01-03T15:32:06.235Z,0.50
2018-01-03T15:34:33.865Z,1.07
2018-01-03T15:37:01.465Z,0.50
2018-01-03T15:39:29.063Z,0.60
2018-01-03T15:41:57.440Z,0.60
2018-01-03T15:44:25.812Z,0.70
2018-01-03T15:46:54.201Z,0.70
2018-01-03T15:49:22.729Z,0.70
2018-01-03T15:51:50.320Z,1.07
2018-01-03T15:54:18.710Z,0.60
2018-01-03T15:56:47.069Z,0.50
2018-01-03T15:59:14.689Z,0.60
2018-01-03T16:01:42.279Z,0.70
2018-01-03T16:04:09.896Z,0.80
2018-01-03T16:06:37.501Z,0.80
2018-01-03T16:09:05.154Z,0.67
2018-01-03T16:11:32.755Z,0.93
2018-01-03T16:14:00.409Z,0.63
2018-01-03T16:16:28.769Z,0.50
2018-01-03T16:18:56.388Z,0.50
2018-01-03T16:21:23.973Z,0.70
2018-01-03T16:23:51.556Z,0.80
2018-01-03T16:26:19.183Z,0.70
2018-01-03T16:28:46.783Z,0.93
2018-01-03T16:31:14.396Z,0.60
2018-01-03T16:33:41.992Z,0.90
2018-01-03T16:36:09.617Z,0.90
2018-01-03T16:38:37.287Z,0.70
2018-01-03T16:41:04.876Z,0.50
2018-01-03T16:43:32.500Z,0.67
2018-01-03T16:46:00.089Z,0.70
2018-01-03T16:48:27.713Z,0.97
2018-01-03T16:50:55.297Z,0.60
2018-01-03T16:53:23.054Z,1.03
2018-01-03T16:55:50.656Z,1.20
2018-01-03T16:58:19.288Z,1.03
2018-01-03T17:00:46.876Z,0.87
2018-01-03T17:03:14.513Z,1.20
2018-01-03T17:05:43.446Z,1.53
2018-01-03T17:08:11.904Z,0.70
2018-01-03T17:10:39.516Z,0.80
2018-01-03T17:13:07.868Z,1.10
2018-01-03T17:15:35.801Z,0.73
2018-01-03T17:18:03.839Z,0.73
2018-01-03T17:20:32.460Z,0.87
2018-01-03T17:23:01.013Z,0.97
2018-01-03T17:25:30.176Z,0.83
2018-01-03T17:27:57.840Z,3.17
2018-01-03T17:30:26.204Z,1.13
2018-01-03T17:32:53.827Z,1.00
2018-01-03T17:35:21.725Z,1.00
2018-01-03T17:37:49.657Z,1.87
2018-01-03T17:40:17.397Z,1.20
2018-01-03T17:42:45.752Z,1.03
2018-01-03T17:45:13.371Z,1.60
2018-01-03T17:47:41.760Z,1.60
2018-01-03T17:50:09.371Z,1.80
2018-01-03T17:52:37.720Z,1.27
2018-01-03T17:55:05.349Z,1.23
2018-01-03T17:57:32.945Z,1.20
2018-01-03T18:00:00.687Z,1.07
2018-01-03T18:02:28.273Z,1.90
2018-01-03T18:04:55.869Z,2.00
2018-01-03T18:07:23.493Z,1.20
2018-01-03T18:09:51.087Z,1.53
2018-01-03T18:12:19.470Z,0.90
2018-01-03T18:14:47.057Z,1.43
2018-01-03T18:17:14.681Z,1.50
2018-01-03T18:19:43.033Z,2.30
2018-01-03T18:22:10.687Z,1.77
2018-01-03T18:24:38.316Z,1.73
2018-01-03T18:27:05.909Z,1.40
2018-01-03T18:29:33.521Z,1.10
2018-01-03T18:32:01.121Z,1.60
2018-01-03T18:34:28.740Z,2.60
2018-01-03T18:36:56.326Z,1.73
2018-01-03T18:39:23.940Z,1.40
2018-01-03T18:41:52.297Z,1.43
2018-01-03T18:44:19.927Z,2.63
2018-01-03T18:46:47.515Z,1.47
2018-01-03T18:49:15.109Z,1.30
2018-01-03T18:51:43.572Z,2.37
2018-01-03T18:54:12.057Z,1.17
2018-01-03T18:56:40.410Z,1.87
2018-01-03T18:59:08.034Z,1.60
2018-01-03T19:01:35.644Z,1.63
2018-01-03T19:04:03.249Z,1.83
2018-01-03T19:06:30.877Z,1.93
2018-01-03T19:08:59.233Z,1.67
2018-01-03T19:11:26.812Z,1.17
2018-01-03T19:13:55.196Z,1.10
2018-01-03T19:16:23.552Z,1.23
2018-01-03T19:18:51.171Z,1.60
2018-01-03T19:21:18.757Z,1.00
2018-01-03T19:23:46.369Z,1.87
2018-01-03T19:26:13.962Z,2.13
2018-01-03T19:28:41.584Z,1.77
2018-01-03T19:31:09.188Z,1.97
2018-01-03T19:33:36.792Z,2.07
2018-01-03T19:36:04.410Z,0.90
2018-01-03T19:38:32.008Z,0.90
2018-01-03T19:40:59.620Z,1.80
2018-01-03T19:43:27.202Z,1.07
2018-01-03T19:45:54.820Z,2.27
2018-01-03T19:48:22.416Z,1.57
2018-01-03T19:50:50.032Z,1.10
2018-01-03T19:53:18.389Z,1.37
2018-01-03T19:55:46.780Z,2.10
2018-01-03T19:58:15.139Z,1.30
2018-01-03T20:00:42.767Z,1.33
2018-01-03T20:03:10.372Z,2.90
2018-01-03T20:05:38.728Z,1.50
2018-01-03T20:08:06.351Z,2.23
2018-01-03T20:10:33.940Z,1.80
2018-01-03T20:13:01.526Z,2.07
2018-01-03T20:15:29.146Z,1.97
2018-01-03T20:17:56.732Z,1.27
2018-01-03T20:20:24.338Z,1.37
2018-01-03T20:22:51.991Z,2.43
2018-01-03T20:25:20.338Z,1.87
2018-01-03T20:27:49.477Z,1.30
2018-01-03T20:30:17.168Z,1.50
2018-01-03T20:32:44.764Z,1.13
2018-01-03T20:35:12.381Z,1.73
2018-01-03T20:37:39.969Z,0.80
2018-01-03T20:40:07.601Z,1.20
2018-01-03T20:42:35.204Z,1.60
2018-01-03T20:45:04.056Z,1.57
2018-01-03T20:47:31.640Z,0.90
2018-01-03T20:49:59.229Z,1.67
2018-01-03T20:52:27.622Z,1.23
2018-01-03T20:54:55.980Z,2.80
2018-01-03T20:57:23.616Z,1.50
2018-01-03T20:59:51.211Z,1.47
2018-01-03T21:02:19.570Z,1.23
2018-01-03T21:04:48.704Z,1.43
2018-01-03T21:07:16.293Z,1.23
2018-01-03T21:09:43.891Z,1.77
2018-01-03T21:12:13.028Z,1.00
2018-01-03T21:14:40.617Z,1.33
2018-01-03T21:17:08.236Z,1.03
2018-01-03T21:19:35.857Z,1.40
2018-01-03T21:22:03.449Z,2.27
2018-01-03T21:24:31.840Z,1.50
2018-01-03T21:27:00.195Z,1.03
2018-01-03T21:29:27.829Z,1.03
2018-01-03T21:31:55.422Z,1.10
2018-01-03T21:34:23.788Z,1.00
2018-01-03T21:36:51.413Z,0.80
2018-01-03T21:39:19.004Z,1.60
2018-01-03T21:41:47.357Z,1.40
2018-01-03T21:44:14.980Z,1.30
2018-01-03T21:46:42.569Z,1.43
2018-01-03T21:49:10.159Z,0.80
2018-01-03T21:51:37.798Z,1.73
2018-01-03T21:54:05.385Z,1.03
2018-01-03T21:56:33.247Z,1.53
2018-01-03T21:59:01.204Z,1.83
2018-01-03T22:01:28.806Z,0.80
2018-01-03T22:03:57.208Z,1.07
2018-01-03T22:06:25.171Z,1.30
2018-01-03T22:08:53.385Z,1.27
2018-01-03T22:11:22.500Z,1.50
2018-01-03T22:13:58.881Z,1.20
2018-01-03T22:16:27.091Z,1.00
2018-01-03T22:18:58.500Z,1.77
2018-01-03T22:21:27.363Z,1.03
2018-01-03T22:23:56.654Z,1.40
2018-01-03T22:26:24.250Z,1.90
2018-01-03T22:28:51.860Z,1.03
2018-01-03T22:31:19.493Z,1.03
2018-01-03T22:33:47.858Z,1.57
2018-01-03T22:36:16.217Z,1.43
2018-01-03T22:38:43.837Z,0.93
2018-01-03T22:41:12.198Z,1.33
2018-01-03T22:43:39.789Z,2.20
2018-01-03T22:46:07.412Z,0.80
2018-01-03T22:48:36.136Z,1.37
2018-01-03T22:51:03.745Z,0.70
2018-01-03T22:53:32.097Z,1.27
2018-01-03T22:55:59.718Z,1.37
2018-01-03T22:58:27.321Z,1.00
2018-01-03T23:00:55.065Z,1.17
2018-01-03T23:03:22.661Z,0.80
2018-01-03T23:05:50.277Z,0.93
2018-01-03T23:08:17.876Z,1.07
2018-01-03T23:10:45.464Z,1.20
2018-01-03T23:13:13.857Z,1.30
2018-01-03T23:15:41.449Z,1.00
2018-01-03T23:18:09.043Z,0.93
2018-01-03T23:20:36.668Z,1.43
2018-01-03T23:23:04.325Z,0.90
2018-01-03T23:25:31.908Z,1.10
2018-01-03T23:27:59.536Z,0.80
2018-01-03T23:30:27.129Z,0.87
2018-01-03T23:32:54.735Z,0.77
2018-01-03T23:35:22.368Z,1.00
2018-01-03T23:37:51.465Z,1.63
2018-01-03T23:40:19.068Z,0.77
2018-01-03T23:42:46.681Z,1.03
2018-01-03T23:45:15.785Z,1.10
2018-01-03T23:47:43.380Z,0.90
2018-01-03T23:50:10.996Z,1.03
2018-01-03T23:52:38.585Z,0.80
2018-01-03T23:55:06.973Z,0.73
2018-01-03T23:57:34.564Z,0.73
